Doha, Qatar

7:34 AM AST on August 01, 2015 (GMT +0300)
Wakra | | Change Station
CLOSE
Current Station
Personal Weather Station
Location: Wakra, WAKRA
Elevation: 23 ft
Nearby Weather Stations

Elev 23 ft 25.17 °N, 51.60 °E | Updated 5 seconds ago

Clear
Clear
102.2 °F
Feels Like 119 °F
N
4.7
Wind Variable Wind from SSW
Gusts 6.0 mph

Today
High -- | Low -- °F
--% Chance of Precip.
Yesterday
High -- | Low -- °F
Precip. -- in
5:00 AM 6:19 PM
Full, 99% visible
Pressure 29.50 in
Visibility 5.0 miles
Clouds
Heat Index 119 °F
Dew Point 77 °F
Humidity 45%
Rainfall 0.00 in
Snow Depth Not available.
UV Not available.
Pollen Not available.
Air Quality Not available.
Flu Activity Not available.
METAR OTBD 010400Z 18004KT 130V240 8000 NSC 36/26 Q0999 NOSIG

More Conditions Fewer Conditions

Pressure 29.50 in
Visibility 5.0 miles
Clouds
Heat Index 119 °F
Dew Point 77 °F
Humidity 45%
Rainfall 0.00 in
Snow Depth Not available.
UV Not available.
Pollen Not available.
Air Quality Not available.
Flu Activity Not available.
METAR OTBD 010400Z 18004KT 130V240 8000 NSC 36/26 Q0999 NOSIG

More Conditions Fewer Conditions

10-Day Weather Forecast

×

Almanac

Astronomy

Aug. 01, 2015 Rise Set
Actual Time
Civil Twilight
Nautical Twilight
Astronomical Twilight
Moon
Length of Visible Light
Length of Day
Tomorrow will be .
, % of the Moon is Illuminated

Today's Extremes

Country Highs Country Lows

Community

WunderPhotos

Upload Photos

1,842,882 photos uploaded!

WunderBlogs® & News

Nearby

Air Quality

  Air Quality AQ Index Pollutant
Not available.

Snow Depth

Station Depth Elevation

Earthquake Activity

City Distance Mag. Time & Date
Minimum magnitude displayed is 2.5.

Coastal Water Temperatures

Place Temperature

Stations

Nearby Weather Stations

Station Location Temp. Windchill Dew Point Humidity Wind Precip. Elev Updated Type